If you wish to contribute or participate in the discussions about articles you are invited to join SKYbrary as a registered user

 Actions

Oban Airport

From SKYbrary Wiki

EGEO
Airport
ICAO: EGEO – IATA: OBN
Summary
Name Oban Airport
Region Europe
Territory United Kingdom GB.gif
Location , Scotland
Serving North Connel
Elevation 6.096 m
20 ft
20 ft6.096 m
Type small airport
Coordinates 56° 27' 50.40" N, 5° 24' 0.00" W
Runways
Designator Length Width Surface ROPS
1/19 1240 m4,068.241 ft
30 m98.425 ft
ASP /
4/22 900 m2,952.756 ft
30 m98.425 ft
ASP /


METAR
Observation EGEO 121550Z 11007KT 9999 VCSH FEW022 BKN034 OVC041 05/02 Q0976
Station Oban Airport
Date/Time 12 December 2019 15:50:00
Wind direction 110°
Wind speed 07 kts
Lowest cloud amount few clouds
Temperature 5°C
Dew point 2°C
Humidity 80%
QNH 976 hPa
Weather condition in vicinity: showers